EDHL/LBC METAR and TAF weather

Enter ICAO airport designator
Station Type Date Time Source
EDHL METAR 2020/11/25 20:50 UTC NOAA

EDHL 252050Z 14003KT 110V180 4700 BR SCT003 02/02 Q1018


Station Type Date Time Source
EDHL Decoded METAR 2020/11/25 20:50 UTC NOAA

Luebeck-Blankensee, Germany (EDHL) 53-49N 010-42E 15M
Nov 25, 2020 - 03:50 PM EST / 2020.11.25 2050 UTC
Wind: from the SE (140 degrees) at 3 MPH (3 KT) (direction variable):0
Visibility: 2 mile(s):0
Sky conditions: partly cloudy
Weather: mist
Temperature: 35 F (2 C)
Dew Point: 35 F (2 C)
Relative Humidity: 100%
Pressure (altimeter): 30.06 in. Hg (1018 hPa)
ob: EDHL 252050Z 14003KT 110V180 4700 BR SCT003 02/02 Q1018
cycle: 21

Station Type Date Time Source
EDHL TAF 2010/02/22 14:20 UTC NOAA

METAR EDHL 221420Z 15004KT 110V180 9999 FEW039 SCT120 05/02 Q0990
RMK X

Example: see airport list